Time;durP1;ratioP1;P1;durP2;ratioP2;P2;SDS_P1;SDS_P2;PMS_P1;PMS_P2;Temp;Humidity;BMP_temperature;BMP_pressure;BME280_temperature;BME280_humidity;BME280_pressure;Samples;Min_cycle;Max_cycle;Signal;HPM_P1;HPM_P2
2023/06/03 00:00:43;;;;;;;1.40;0.80;;;;;;;8.04;58.38;101327.92;104647;1267;97974;-78
2023/06/03 00:03:46;;;;;;;3.20;1.00;;;;;;;8.02;58.44;101329.31;104651;1267;97979;-78
2023/06/03 00:06:32;;;;;;;5.30;1.10;;;;;;;8.01;58.52;101326.66;104689;1270;99629;-76
2023/06/03 00:09:17;;;;;;;1.30;1.00;;;;;;;7.97;58.65;101325.73;104507;1267;103727;-76
2023/06/03 00:12:03;;;;;;;3.50;1.00;;;;;;;7.92;58.81;101327.17;104614;1270;99364;-77
2023/06/03 00:14:48;;;;;;;2.30;1.20;;;;;;;7.88;58.79;101329.30;104593;1267;97957;-76
2023/06/03 00:17:34;;;;;;;3.20;1.30;;;;;;;7.85;58.95;101329.49;104551;1270;98058;-77
2023/06/03 00:20:20;;;;;;;3.20;1.20;;;;;;;7.79;59.15;101332.41;104617;1267;98463;-77
2023/06/03 00:23:06;;;;;;;5.10;0.90;;;;;;;7.72;59.40;101328.95;104599;1270;101303;-76
2023/06/03 00:25:51;;;;;;;3.00;1.10;;;;;;;7.67;59.50;101331.36;104781;1270;109168;-77
2023/06/03 00:28:37;;;;;;;2.30;1.10;;;;;;;7.64;59.40;101331.48;104576;1267;99190;-77
2023/06/03 00:31:22;;;;;;;1.50;0.90;;;;;;;7.61;59.39;101330.08;104479;1267;99283;-78
2023/06/03 00:34:07;;;;;;;3.90;1.00;;;;;;;7.57;59.59;101328.51;104559;1269;98505;-78
2023/06/03 00:36:53;;;;;;;3.00;1.20;;;;;;;7.54;59.77;101326.16;104571;1267;102614;-75
2023/06/03 00:39:39;;;;;;;4.30;1.40;;;;;;;7.50;59.92;101328.45;104440;1265;99215;-77
2023/06/03 00:42:24;;;;;;;2.40;1.40;;;;;;;7.48;59.91;101328.28;104490;1267;98763;-77
2023/06/03 00:45:09;;;;;;;1.80;1.30;;;;;;;7.44;59.99;101331.02;104604;1270;97936;-76
2023/06/03 00:47:56;;;;;;;2.80;1.00;;;;;;;7.40;59.95;101330.92;104500;1266;98034;-77
2023/06/03 00:50:43;;;;;;;2.40;1.20;;;;;;;7.35;60.09;101332.64;104566;1270;101806;-78
2023/06/03 00:53:29;;;;;;;1.90;0.90;;;;;;;7.30;60.17;101334.23;104593;1267;100297;-75
2023/06/03 00:56:19;;;;;;;3.10;1.30;;;;;;;7.23;60.13;101339.65;104564;1267;98554;-77
2023/06/03 00:59:04;;;;;;;6.70;2.00;;;;;;;7.19;60.48;101342.23;104454;1269;97966;-77
2023/06/03 01:01:50;;;;;;;6.30;1.70;;;;;;;7.15;60.80;101342.23;104497;1271;98486;-77
2023/06/03 01:04:37;;;;;;;2.10;1.40;;;;;;;7.11;60.93;101343.88;104617;1270;102130;-76
2023/06/03 01:08:13;;;;;;;2.10;1.60;;;;;;;7.07;61.12;101343.01;104525;1270;100507;-77
2023/06/03 01:11:07;;;;;;;2.90;1.50;;;;;;;7.02;61.18;101352.48;104352;1270;98022;-76
2023/06/03 01:14:03;;;;;;;5.30;1.70;;;;;;;6.96;61.39;101350.81;104557;1268;98053;-77
2023/06/03 01:16:52;;;;;;;3.40;1.50;;;;;;;6.89;61.63;101356.05;104443;1267;99611;-76
2023/06/03 01:19:49;;;;;;;3.10;1.40;;;;;;;6.87;61.84;101358.40;104577;1267;101444;-76
2023/06/03 01:22:42;;;;;;;1.90;1.20;;;;;;;6.84;61.79;101359.02;104563;1267;99981;-77
2023/06/03 01:25:28;;;;;;;2.00;1.10;;;;;;;6.81;61.83;101358.95;104679;1267;98112;-77
2023/06/03 01:28:14;;;;;;;3.90;1.10;;;;;;;6.78;61.70;101363.17;104478;1270;99174;-77
2023/06/03 01:31:02;;;;;;;2.50;1.60;;;;;;;6.75;61.94;101362.35;104571;1268;98034;-76
2023/06/03 01:33:48;;;;;;;3.30;1.40;;;;;;;6.73;61.89;101360.63;104598;1267;102620;-77
2023/06/03 01:36:35;;;;;;;4.80;1.70;;;;;;;6.67;62.21;101362.25;104430;1270;99904;-77
2023/06/03 01:39:21;;;;;;;5.60;1.10;;;;;;;6.59;62.34;101363.77;104674;1267;99141;-78
2023/06/03 01:42:09;;;;;;;3.20;1.30;;;;;;;6.52;62.22;101368.45;104574;1271;97901;-76
2023/06/03 01:44:57;;;;;;;1.50;1.10;;;;;;;6.46;62.48;101371.67;104532;1267;99772;-77
2023/06/03 01:47:43;;;;;;;3.10;1.40;;;;;;;6.40;62.39;101372.41;104590;1267;101973;-78
2023/06/03 01:50:28;;;;;;;3.70;1.80;;;;;;;6.36;62.44;101369.63;104448;1270;99908;-76
2023/06/03 01:53:15;;;;;;;4.10;1.70;;;;;;;6.32;62.93;101374.76;104467;1271;98005;-77
2023/06/03 01:56:02;;;;;;;2.40;1.20;;;;;;;6.28;62.85;101376.05;104457;1274;99212;-78
2023/06/03 01:58:48;;;;;;;4.10;1.40;;;;;;;6.27;62.89;101371.38;104503;1270;98051;-80
2023/06/03 02:01:36;;;;;;;1.70;1.30;;;;;;;6.25;63.19;101372.08;104392;1272;102901;-77
2023/06/03 02:04:22;;;;;;;1.70;1.40;;;;;;;6.25;63.49;101377.42;104547;1270;99087;-77
2023/06/03 02:07:08;;;;;;;6.00;1.50;;;;;;;6.22;63.75;101383.15;104507;1267;99441;-76
2023/06/03 02:09:54;;;;;;;9.20;1.60;;;;;;;6.18;63.76;101388.30;104462;1267;99269;-76
2023/06/03 02:12:40;;;;;;;5.40;1.30;;;;;;;6.15;64.00;101389.83;104569;1267;98129;-77
2023/06/03 02:15:43;;;;;;;2.20;1.20;;;;;;;6.11;64.26;101389.48;104570;1266;102649;-77
2023/06/03 02:18:29;;;;;;;2.80;1.60;;;;;;;6.10;64.29;101393.44;104563;1270;100231;-77
2023/06/03 02:21:14;;;;;;;2.10;1.50;;;;;;;6.11;64.41;101394.84;104573;1270;99276;-77
2023/06/03 02:24:00;;;;;;;3.80;1.30;;;;;;;6.08;64.47;101400.05;104765;1267;98368;-78
2023/06/03 02:26:53;;;;;;;3.90;1.50;;;;;;;6.03;64.43;101403.48;104559;1270;98528;-77
2023/06/03 02:29:38;;;;;;;3.10;1.50;;;;;;;6.01;64.69;101405.66;104539;1271;101478;-77
2023/06/03 02:32:24;;;;;;;2.50;1.10;;;;;;;5.99;65.02;101410.83;104624;1270;99235;-76
2023/06/03 02:35:10;;;;;;;5.20;1.20;;;;;;;5.95;65.02;101413.10;104508;1267;98661;-78
2023/06/03 02:37:57;;;;;;;1.90;1.50;;;;;;;5.90;65.14;101415.83;104514;1270;97990;-77
2023/06/03 02:40:43;;;;;;;3.30;1.40;;;;;;;5.87;65.17;101416.88;104617;1267;97907;-77
2023/06/03 02:43:29;;;;;;;4.80;2.50;;;;;;;5.85;65.33;101418.48;104505;1269;102033;-77
2023/06/03 02:46:14;;;;;;;2.90;1.60;;;;;;;5.83;65.74;101419.31;104544;1265;100320;-77
2023/06/03 02:49:04;;;;;;;1.80;1.40;;;;;;;5.79;65.97;101419.85;104475;1274;97987;-78
2023/06/03 02:51:49;;;;;;;3.10;1.30;;;;;;;5.76;66.18;101423.65;104612;1267;97932;-77
2023/06/03 02:54:35;;;;;;;4.00;1.60;;;;;;;5.75;66.59;101420.36;104593;1266;98506;-77
2023/06/03 02:57:22;;;;;;;4.60;1.30;;;;;;;5.72;66.53;101422.07;104478;1268;102706;-77
2023/06/03 03:00:11;;;;;;;3.80;1.50;;;;;;;5.70;66.49;101421.95;104610;1267;99073;-76
2023/06/03 03:02:57;;;;;;;3.10;1.60;;;;;;;5.68;66.55;101420.36;104494;1266;97983;-77
2023/06/03 03:05:42;;;;;;;2.50;1.60;;;;;;;5.67;66.61;101425.39;104580;1268;98058;-76
2023/06/03 03:08:29;;;;;;;2.80;1.60;;;;;;;5.65;67.09;101427.51;104606;1270;97949;-77
2023/06/03 03:11:15;;;;;;;4.60;1.70;;;;;;;5.62;67.32;101431.64;104542;1270;101338;-76
2023/06/03 03:14:01;;;;;;;5.10;1.90;;;;;;;5.58;67.28;101435.02;104508;1270;101931;-77
2023/06/03 03:16:47;;;;;;;6.70;1.80;;;;;;;5.53;67.45;101437.95;104532;1267;98229;-77
2023/06/03 03:19:33;;;;;;;6.60;2.00;;;;;;;5.48;67.42;101440.69;104454;1271;97962;-77
2023/06/03 03:22:18;;;;;;;2.20;1.40;;;;;;;5.43;67.53;101444.06;104537;1268;97955;-74
2023/06/03 03:25:05;;;;;;;2.70;1.50;;;;;;;5.39;67.82;101444.25;104599;1272;101362;-75
2023/06/03 03:27:50;;;;;;;2.70;1.60;;;;;;;5.37;68.02;101442.70;104490;1271;99132;-76
2023/06/03 03:30:37;;;;;;;2.50;1.30;;;;;;;5.37;68.45;101449.58;104438;1270;98978;-76
2023/06/03 03:33:26;;;;;;;3.00;1.60;;;;;;;5.38;68.55;101452.33;104495;1271;98066;-76
2023/06/03 03:36:22;;;;;;;4.70;1.60;;;;;;;5.34;68.55;101458.52;104595;1267;98511;-77
2023/06/03 03:39:09;;;;;;;2.90;1.50;;;;;;;5.33;69.11;101457.92;104494;1273;102661;-77
2023/06/03 03:42:09;;;;;;;2.40;1.90;;;;;;;5.34;69.53;101460.89;104620;1267;99358;-75
2023/06/03 03:44:59;;;;;;;2.50;1.40;;;;;;;5.38;69.77;101463.87;104511;1267;98923;-76
2023/06/03 03:47:49;;;;;;;4.70;1.80;;;;;;;5.41;69.90;101465.70;104440;1269;98585;-77
2023/06/03 03:50:43;;;;;;;3.50;1.90;;;;;;;5.46;70.11;101470.27;104590;1270;98490;-77
2023/06/03 03:53:32;;;;;;;5.40;1.80;;;;;;;5.53;70.54;101473.92;104605;1267;101998;-76
2023/06/03 03:56:21;;;;;;;6.40;2.70;;;;;;;5.61;70.80;101477.52;104609;1267;99107;-76
2023/06/03 03:59:11;;;;;;;3.90;1.90;;;;;;;5.69;70.87;101480.48;104654;1271;98965;-77
2023/06/03 04:01:57;;;;;;;2.70;1.70;;;;;;;5.76;71.20;101481.28;104613;1267;97980;-76
2023/06/03 04:04:44;;;;;;;5.30;2.30;;;;;;;5.83;71.51;101481.75;104638;1270;97973;-76
2023/06/03 04:07:35;;;;;;;6.30;2.00;;;;;;;5.90;71.72;101486.10;104597;1270;102590;-77
2023/06/03 04:10:22;;;;;;;3.30;1.90;;;;;;;5.94;71.89;101488.36;104485;1267;99253;-75
2023/06/03 04:13:09;;;;;;;5.80;1.60;;;;;;;6.03;72.08;101487.89;104532;1272;98310;-76
2023/06/03 04:16:00;;;;;;;4.70;1.80;;;;;;;6.13;72.31;101491.13;104462;1268;98088;-77
2023/06/03 04:18:47;;;;;;;3.70;1.70;;;;;;;6.24;72.46;101493.13;104799;1270;98401;-77
2023/06/03 04:21:37;;;;;;;2.90;1.50;;;;;;;6.37;72.33;101496.77;104501;1267;101356;-77
2023/06/03 04:24:25;;;;;;;4.00;2.00;;;;;;;6.49;72.21;101493.14;104821;1267;99112;-76
2023/06/03 04:27:12;;;;;;;5.20;2.00;;;;;;;6.59;72.24;101492.78;104600;1272;97977;-78
2023/06/03 04:29:58;;;;;;;4.60;2.00;;;;;;;6.67;72.31;101495.35;104784;1270;97997;-77
2023/06/03 04:32:45;;;;;;;3.10;1.60;;;;;;;6.75;72.13;101495.85;104654;1269;98519;-77
2023/06/03 04:35:30;;;;;;;4.40;2.70;;;;;;;6.85;72.15;101498.16;104587;1267;102112;-76
2023/06/03 04:38:16;;;;;;;5.20;2.60;;;;;;;6.90;71.99;101501.96;104640;1267;99265;-77
2023/06/03 04:41:02;;;;;;;7.70;2.40;;;;;;;6.93;72.14;101497.41;104690;1270;97989;-77
2023/06/03 04:43:52;;;;;;;5.30;2.50;;;;;;;6.99;72.12;101495.95;104657;1271;97937;-77
2023/06/03 04:46:39;;;;;;;4.60;2.20;;;;;;;7.05;72.07;101498.08;104589;1269;98399;-77
2023/06/03 04:49:27;;;;;;;4.20;2.30;;;;;;;7.12;71.94;101500.65;104498;1270;102427;-76
2023/06/03 04:52:13;;;;;;;3.60;2.10;;;;;;;7.19;71.94;101504.05;104545;1270;99206;-77
2023/06/03 04:55:03;;;;;;;4.00;2.00;;;;;;;7.26;71.95;101505.61;104472;1266;98024;-76
2023/06/03 04:57:50;;;;;;;4.90;2.20;;;;;;;7.36;72.27;101510.40;104566;1269;99331;-76
2023/06/03 05:00:36;;;;;;;3.00;1.70;;;;;;;7.48;72.06;101509.62;104744;1269;97999;-76
2023/06/03 05:03:26;;;;;;;7.00;2.00;;;;;;;7.58;71.35;101508.24;104580;1271;101714;-76
2023/06/03 05:06:12;;;;;;;2.70;1.60;;;;;;;7.70;71.58;101511.88;104694;1270;99160;-77
2023/06/03 05:08:58;;;;;;;3.60;1.70;;;;;;;7.82;71.41;101510.96;104741;1269;98979;-77
2023/06/03 05:11:44;;;;;;;3.40;1.50;;;;;;;7.96;70.99;101510.14;104621;1269;97983;-77
2023/06/03 05:14:30;;;;;;;3.80;1.70;;;;;;;8.08;70.83;101513.07;104625;1270;98537;-77
2023/06/03 05:17:17;;;;;;;6.30;2.00;;;;;;;8.21;70.85;101514.98;104562;1267;101457;-78
2023/06/03 05:20:04;;;;;;;4.30;1.80;;;;;;;8.34;70.79;101516.30;104516;1268;100361;-77
2023/06/03 05:22:49;;;;;;;2.40;1.40;;;;;;;8.46;70.48;101518.01;104458;1266;98971;-77
2023/06/03 05:25:35;;;;;;;3.60;1.70;;;;;;;8.58;70.14;101518.97;104672;1270;98011;-77
2023/06/03 05:28:21;;;;;;;3.20;1.50;;;;;;;8.67;69.86;101518.92;104551;1274;98482;-78
2023/06/03 05:31:06;;;;;;;5.00;1.60;;;;;;;8.77;70.03;101523.06;104739;1271;101364;-78
2023/06/03 05:33:52;;;;;;;3.40;1.30;;;;;;;8.87;69.38;101524.77;104748;1270;100468;-77
2023/06/03 05:36:40;;;;;;;4.40;1.80;;;;;;;8.96;68.79;101524.14;104831;1270;98487;-78
2023/06/03 05:39:26;;;;;;;2.50;1.40;;;;;;;9.09;68.96;101522.34;104721;1270;98057;-77
2023/06/03 05:42:12;;;;;;;2.40;0.90;;;;;;;9.23;68.84;101523.19;104730;1271;98085;-77
2023/06/03 05:44:58;;;;;;;2.60;1.10;;;;;;;9.36;68.29;101523.09;104789;1270;102095;-76
2023/06/03 05:47:45;;;;;;;2.40;1.00;;;;;;;9.46;67.70;101520.11;104748;1270;100865;-77
2023/06/03 05:50:33;;;;;;;2.60;1.20;;;;;;;9.58;67.73;101524.37;104579;1282;98947;-77
2023/06/03 05:53:25;;;;;;;1.70;1.10;;;;;;;9.66;67.30;101525.67;104659;1269;97981;-77
2023/06/03 05:56:11;;;;;;;;;;;;;;;9.76;67.12;101523.52;104544;1271;97965;-76
2023/06/03 05:58:58;;;;;;;2.10;0.90;;;;;;;9.87;66.43;101525.23;104575;1271;102807;-77
2023/06/03 06:01:45;;;;;;;4.10;1.10;;;;;;;10.01;66.60;101528.05;104618;1271;99101;-76
2023/06/03 06:04:31;;;;;;;1.70;1.00;;;;;;;10.15;66.37;101534.28;104567;1269;98921;-76
2023/06/03 06:07:17;;;;;;;2.30;1.00;;;;;;;10.22;65.34;101529.27;104494;1272;98071;-78
2023/06/03 06:10:03;;;;;;;2.90;0.90;;;;;;;10.26;64.43;101535.04;104654;1269;98422;-77
2023/06/03 06:12:49;;;;;;;5.10;1.10;;;;;;;10.33;64.46;101539.29;104754;1270;102649;-77
2023/06/03 06:15:35;;;;;;;4.60;1.90;;;;;;;10.42;64.69;101541.69;104657;1269;100332;-77
2023/06/03 06:18:22;;;;;;;1.60;0.90;;;;;;;10.55;64.59;101541.95;104607;1269;98894;-76
2023/06/03 06:21:09;;;;;;;2.20;0.90;;;;;;;10.70;64.89;101539.41;104464;1271;97991;-75
2023/06/03 06:23:56;;;;;;;2.50;1.20;;;;;;;10.83;64.07;101543.16;104533;1266;98625;-76
2023/06/03 06:26:41;;;;;;;3.80;1.00;;;;;;;10.93;63.69;101544.38;104704;1273;101340;-77
2023/06/03 06:29:27;;;;;;;1.90;0.80;;;;;;;11.01;62.61;101541.91;104360;1267;100323;-75
2023/06/03 06:32:21;;;;;;;3.50;1.30;;;;;;;11.04;61.93;101538.21;104371;1274;99033;-76
2023/06/03 06:35:07;;;;;;;3.60;1.10;;;;;;;11.09;61.62;101539.94;104480;1271;98053;-77
2023/06/03 06:37:57;;;;;;;1.60;0.50;;;;;;;11.16;61.84;101539.48;104693;1267;97987;-84
2023/06/03 06:40:45;;;;;;;3.50;0.80;;;;;;;11.28;61.73;101533.93;105321;1270;102652;-82
2023/06/03 06:43:35;;;;;;;2.40;0.90;;;;;;;11.34;60.96;101536.78;105376;1267;99098;-81
2023/06/03 06:46:24;;;;;;;3.00;0.80;;;;;;;11.37;60.14;101531.27;105432;1272;98037;-82
2023/06/03 06:49:10;;;;;;;1.10;0.80;;;;;;;11.42;60.44;101529.33;105704;1273;99627;-81
2023/06/03 06:51:56;;;;;;;4.90;0.80;;;;;;;11.52;60.45;101529.73;105514;1269;98387;-82
2023/06/03 06:54:42;;;;;;;1.60;0.70;;;;;;;11.65;59.90;101529.10;105308;1266;101385;-85
2023/06/03 06:57:31;;;;;;;2.00;0.70;;;;;;;11.75;59.66;101526.34;105466;1267;100285;-83
2023/06/03 07:00:17;;;;;;;1.60;0.80;;;;;;;11.83;58.83;101524.37;105354;1267;99000;-85
2023/06/03 07:03:06;;;;;;;1.90;0.70;;;;;;;11.87;57.90;101526.65;105427;1269;98037;-77
2023/06/03 07:05:53;;;;;;;4.20;0.70;;;;;;;11.92;57.93;101527.63;105262;1266;98248;-79
2023/06/03 07:08:40;;;;;;;3.40;0.90;;;;;;;11.96;57.75;101528.23;105823;1269;101447;-82
2023/06/03 07:11:26;;;;;;;2.40;1.00;;;;;;;12.04;57.46;101526.38;105601;1266;100439;-77
2023/06/03 07:14:19;;;;;;;2.20;0.70;;;;;;;12.06;56.75;101524.77;104570;1271;99479;-77
2023/06/03 07:17:05;;;;;;;3.10;0.60;;;;;;;12.07;57.19;101519.66;104547;1269;97968;-76
2023/06/03 07:19:51;;;;;;;3.00;0.80;;;;;;;12.17;57.43;101515.29;104464;1271;98180;-78
2023/06/03 07:22:37;;;;;;;1.40;0.70;;;;;;;12.29;57.50;101517.08;104530;1271;102596;-78
2023/06/03 07:25:50;;;;;;;2.70;0.60;;;;;;;12.41;57.38;101520.18;104763;1269;99098;-77
2023/06/03 07:28:37;;;;;;;1.80;0.60;;;;;;;12.51;56.63;101521.49;104367;1273;98266;-77
2023/06/03 07:31:30;;;;;;;7.90;1.10;;;;;;;12.53;55.54;101523.05;104556;1269;97977;-78
2023/06/03 07:34:21;;;;;;;4.80;0.70;;;;;;;12.49;55.62;101523.35;104711;1272;98520;-80
2023/06/03 07:37:11;;;;;;;;;;;;;;;12.57;55.93;101521.55;104635;1271;101391;-77
2023/06/03 07:39:57;;;;;;;1.00;0.40;;;;;;;12.65;55.63;101519.69;105094;1269;99078;-80
2023/06/03 07:42:48;;;;;;;1.80;0.70;;;;;;;12.64;54.47;101519.16;105695;1267;97989;-87
2023/06/03 07:45:34;;;;;;;0.50;0.30;;;;;;;12.51;53.72;101523.33;105619;1269;97978;-90
2023/06/03 07:48:20;;;;;;;4.40;0.70;;;;;;;12.51;53.59;101521.88;105402;1276;98495;-84
2023/06/03 07:51:08;;;;;;;8.70;0.90;;;;;;;12.61;53.92;101517.75;105314;1271;101345;-85
2023/06/03 07:53:55;;;;;;;2.40;0.60;;;;;;;12.79;54.18;101523.65;105292;1267;99254;-81
2023/06/03 07:56:42;;;;;;;2.70;0.60;;;;;;;12.89;53.35;101523.75;105354;1271;98797;-81
2023/06/03 07:59:27;;;;;;;3.00;0.60;;;;;;;12.98;53.20;101525.02;105653;1269;96451;-77
2023/06/03 08:02:12;;;;;;;4.40;0.70;;;;;;;13.04;52.60;101528.33;104532;1268;98208;-78
2023/06/03 08:05:00;;;;;;;1.50;0.50;;;;;;;13.10;52.17;101524.59;104608;1270;101411;-76
2023/06/03 08:07:46;;;;;;;1.60;0.80;;;;;;;13.17;52.18;101520.30;104535;1271;99296;-79
2023/06/03 08:10:34;;;;;;;1.00;0.30;;;;;;;13.23;51.64;101522.10;104906;1269;98030;-82
2023/06/03 08:13:20;;;;;;;3.00;0.80;;;;;;;13.26;51.03;101515.45;105441;1271;97973;-82
2023/06/03 08:16:06;;;;;;;1.00;0.70;;;;;;;13.34;51.29;101516.02;105791;1267;97940;-80
2023/06/03 08:18:54;;;;;;;0.80;0.50;;;;;;;13.40;51.10;101522.99;105790;1265;102710;-80
2023/06/03 08:21:42;;;;;;;1.90;0.60;;;;;;;13.45;51.03;101526.84;105634;1269;99087;-80
2023/06/03 08:24:27;;;;;;;3.50;0.60;;;;;;;13.52;51.10;101518.23;106091;1268;98981;-82
2023/06/03 08:27:12;;;;;;;1.40;0.50;;;;;;;13.62;50.90;101517.79;105894;1270;98519;-84
2023/06/03 08:29:58;;;;;;;1.50;0.60;;;;;;;13.66;50.39;101519.23;105534;1269;99788;-83
2023/06/03 08:32:43;;;;;;;2.10;0.50;;;;;;;13.67;50.00;101517.58;105490;1272;101414;-75
2023/06/03 08:35:28;;;;;;;1.30;0.50;;;;;;;13.70;49.74;101518.46;104543;1269;99281;-76
2023/06/03 08:38:16;;;;;;;2.40;0.60;;;;;;;13.78;50.63;101512.61;104495;1271;99002;-75
2023/06/03 08:41:01;;;;;;;3.10;0.60;;;;;;;13.93;50.69;101517.75;104391;1289;97983;-75
2023/06/03 08:43:53;;;;;;;0.90;0.60;;;;;;;14.08;50.87;101521.47;104561;1271;97940;-76
2023/06/03 08:46:45;;;;;;;1.00;0.40;;;;;;;14.23;50.92;101521.23;104560;1268;111016;-75
2023/06/03 08:50:03;;;;;;;0.80;0.40;;;;;;;14.28;49.49;101519.48;104493;1271;100332;-75
2023/06/03 08:52:54;;;;;;;1.70;0.60;;;;;;;14.31;48.82;101521.45;104499;1271;98513;-75
2023/06/03 08:55:40;;;;;;;3.40;0.80;;;;;;;14.35;48.24;101521.95;104522;1269;97970;-76
2023/06/03 08:58:32;;;;;;;1.70;0.70;;;;;;;14.33;47.70;101525.52;104559;1266;98502;-76
2023/06/03 09:01:21;;;;;;;1.50;0.60;;;;;;;14.31;47.18;101524.96;104579;1270;101855;-75
2023/06/03 09:04:12;;;;;;;1.50;0.60;;;;;;;14.35;47.79;101522.44;104504;1267;100465;-75
2023/06/03 09:06:58;;;;;;;0.80;0.60;;;;;;;14.47;48.30;101524.30;104530;1267;98004;-75
2023/06/03 09:09:44;;;;;;;3.40;0.70;;;;;;;14.57;47.66;101517.81;104505;1271;98532;-75
2023/06/03 09:12:34;;;;;;;3.80;0.60;;;;;;;14.59;46.70;101519.02;104996;1270;99142;-86
2023/06/03 09:15:21;;;;;;;1.20;0.60;;;;;;;14.55;46.34;101517.09;105499;1267;102660;-85
2023/06/03 09:18:06;;;;;;;0.70;0.50;;;;;;;14.57;46.61;101515.86;105374;1269;99218;-84
2023/06/03 09:20:52;;;;;;;2.10;0.70;;;;;;;14.66;47.58;101520.19;105381;1267;98504;-85
2023/06/03 09:23:42;;;;;;;1.50;0.50;;;;;;;14.80;47.77;101520.64;105305;1270;97931;-84
2023/06/03 09:26:27;;;;;;;2.40;0.50;;;;;;;14.87;47.37;101519.54;105419;1266;98666;-82
2023/06/03 09:29:13;;;;;;;1.40;0.80;;;;;;;15.00;48.46;101520.92;105548;1267;101468;-85
2023/06/03 09:32:02;;;;;;;3.70;0.90;;;;;;;15.17;47.89;101523.19;105277;1272;100504;-86
2023/06/03 09:34:48;;;;;;;1.40;0.50;;;;;;;15.31;47.06;101520.65;105159;1269;98057;-86
2023/06/03 09:37:35;;;;;;;1.00;0.50;;;;;;;15.40;45.65;101518.54;105100;1274;97930;-85
2023/06/03 09:40:29;;;;;;;1.90;0.50;;;;;;;15.48;45.50;101521.56;105356;1267;98398;-86
2023/06/03 09:43:15;;;;;;;2.30;0.60;;;;;;;15.54;45.06;101521.32;105203;1274;101378;-82
2023/06/03 09:46:09;;;;;;;2.60;0.50;;;;;;;15.65;44.80;101520.95;105445;1267;99721;-80
2023/06/03 09:49:16;;;;;;;1.50;0.40;;;;;;;15.73;45.40;101520.08;105453;1266;97965;-80
2023/06/03 09:52:06;;;;;;;2.90;0.50;;;;;;;15.78;44.92;101518.53;105471;1271;97943;-80
2023/06/03 09:55:03;;;;;;;0.60;0.30;;;;;;;15.89;45.12;101514.77;105467;1268;98482;-81
2023/06/03 09:58:13;;;;;;;2.00;0.70;;;;;;;16.00;44.51;101512.55;104966;1269;101563;-78
2023/06/03 10:00:59;;;;;;;;;;;;;;;16.06;44.76;101514.30;104889;1269;99821;-78
2023/06/03 10:03:58;;;;;;;0.90;0.40;;;;;;;16.08;43.43;101519.48;104810;1283;98385;-79
2023/06/03 10:06:44;;;;;;;1.60;0.50;;;;;;;16.09;43.81;101519.01;104822;1267;97961;-79
2023/06/03 10:09:30;;;;;;;1.00;0.50;;;;;;;16.12;44.10;101513.11;104880;1270;98467;-79
2023/06/03 10:12:28;;;;;;;1.50;0.40;;;;;;;16.20;43.72;101513.56;104856;1271;102543;-79
2023/06/03 10:15:33;;;;;;;2.30;0.50;;;;;;;16.26;43.55;101512.23;105240;1270;99115;-77
2023/06/03 10:18:35;;;;;;;1.50;0.60;;;;;;;16.26;43.70;101510.56;104518;1269;98996;-77
2023/06/03 10:21:22;;;;;;;1.80;0.60;;;;;;;16.33;43.74;101513.67;104483;1273;97963;-77
2023/06/03 10:24:07;;;;;;;0.60;0.40;;;;;;;16.34;42.89;101504.72;104647;1267;98552;-78
2023/06/03 10:26:54;;;;;;;1.30;0.40;;;;;;;16.35;43.13;101500.73;104565;1269;101388;-78
2023/06/03 10:29:40;;;;;;;0.90;0.40;;;;;;;16.42;43.42;101501.17;104607;1270;101597;-79
2023/06/03 10:32:26;;;;;;;2.40;0.40;;;;;;;16.46;42.67;101501.70;104514;1271;99985;-77
2023/06/03 10:35:12;;;;;;;1.60;0.50;;;;;;;16.43;42.52;101501.60;104595;1271;99933;-78
2023/06/03 10:38:01;;;;;;;0.60;0.40;;;;;;;16.31;41.93;101499.44;104680;1271;97990;-78
2023/06/03 10:40:46;;;;;;;2.80;0.50;;;;;;;16.19;41.84;101498.51;104629;1269;102721;-77
2023/06/03 10:43:34;;;;;;;2.60;0.50;;;;;;;16.12;42.25;101497.77;104879;1269;100344;-78
2023/06/03 10:46:20;;;;;;;0.70;0.40;;;;;;;16.15;42.50;101493.67;104590;1271;98537;-78
2023/06/03 10:49:07;;;;;;;1.10;0.30;;;;;;;16.21;42.65;101492.48;104680;1274;98129;-78
2023/06/03 10:52:13;;;;;;;3.00;1.60;;;;;;;16.26;41.96;101496.29;104722;1271;98431;-78
2023/06/03 10:55:30;;;;;;;0.70;0.40;;;;;;;16.30;40.96;101493.30;104691;1267;102617;-76
2023/06/03 10:58:20;;;;;;;0.70;0.40;;;;;;;16.39;41.44;101481.91;104664;1280;99083;-78
2023/06/03 11:01:06;;;;;;;0.80;0.30;;;;;;;16.55;41.43;101476.65;104591;1270;97964;-78
2023/06/03 11:04:02;;;;;;;1.00;0.30;;;;;;;16.67;41.68;101478.94;104726;1267;98060;-79
2023/06/03 11:06:47;;;;;;;2.80;0.20;;;;;;;16.77;41.62;101475.50;104663;1269;99145;-79
2023/06/03 11:09:38;;;;;;;1.70;0.70;;;;;;;16.88;41.35;101479.60;104588;1271;101835;-76
2023/06/03 11:12:47;;;;;;;2.10;0.50;;;;;;;16.90;41.26;101473.94;104642;1269;109306;-76
2023/06/03 11:16:01;;;;;;;0.90;0.40;;;;;;;16.92;41.02;101470.40;104602;1270;99256;-79
2023/06/03 11:19:25;;;;;;;1.90;0.70;;;;;;;16.97;41.00;101468.91;104527;1281;98020;-77
2023/06/03 11:22:13;;;;;;;1.50;0.50;;;;;;;17.03;41.80;101469.69;104687;1271;98629;-79
2023/06/03 11:25:02;;;;;;;3.40;0.30;;;;;;;17.03;40.90;101471.16;104911;1272;102090;-80
2023/06/03 11:27:48;;;;;;;0.70;0.30;;;;;;;17.01;40.53;101467.60;104845;1272;99075;-77
2023/06/03 11:30:54;;;;;;;1.00;0.40;;;;;;;17.02;40.21;101464.98;102470;1262;5004559;-79
2023/06/03 11:34:19;;;;;;;2.10;0.60;;;;;;;17.04;40.29;101461.82;104725;1267;97949;-79
2023/06/03 11:37:05;;;;;;;0.90;0.40;;;;;;;17.09;40.53;101463.41;104718;1265;97967;-78
2023/06/03 11:40:01;;;;;;;2.80;0.60;;;;;;;17.21;40.49;101461.73;104969;1269;102074;-79
2023/06/03 11:42:49;;;;;;;2.60;0.50;;;;;;;17.26;39.72;101459.02;104950;1268;100376;-78
2023/06/03 11:45:37;;;;;;;1.80;0.60;;;;;;;17.22;38.89;101458.45;105142;1268;98079;-80
2023/06/03 11:48:37;;;;;;;1.40;0.70;;;;;;;17.24;39.27;101454.40;104979;1268;98312;-79
2023/06/03 11:51:26;;;;;;;1.80;0.60;;;;;;;17.33;40.20;101456.89;104985;1266;98169;-79
2023/06/03 11:54:13;;;;;;;5.10;0.80;;;;;;;17.39;39.60;101460.56;104949;1268;102717;-78
2023/06/03 11:56:59;;;;;;;1.40;0.50;;;;;;;17.39;38.74;101459.09;104993;1268;100596;-78
2023/06/03 11:59:48;;;;;;;1.50;0.40;;;;;;;17.45;39.00;101456.14;105037;1268;99008;-78
2023/06/03 12:02:37;;;;;;;0.80;0.30;;;;;;;17.60;39.15;101456.26;104992;1266;98745;-79
2023/06/03 12:05:23;;;;;;;0.50;0.30;;;;;;;17.65;38.54;101460.54;104729;1269;98534;-77
2023/06/03 12:08:08;;;;;;;4.30;0.80;;;;;;;17.61;37.98;101455.50;104693;1268;102212;-79
2023/06/03 12:10:54;;;;;;;3.90;0.60;;;;;;;17.64;38.98;101449.45;104734;1268;99114;-77
2023/06/03 12:13:42;;;;;;;1.30;0.40;;;;;;;17.75;38.35;101445.20;104725;1266;98879;-79
2023/06/03 12:16:36;;;;;;;3.00;0.50;;;;;;;17.85;37.77;101441.85;104853;1269;97977;-77
2023/06/03 12:19:21;;;;;;;1.40;0.50;;;;;;;17.92;37.58;101440.58;104873;1268;99586;-80
2023/06/03 12:22:08;;;;;;;2.20;0.40;;;;;;;17.93;37.33;101446.27;104810;1266;102604;-80
2023/06/03 12:24:53;;;;;;;1.40;0.40;;;;;;;17.90;36.56;101441.88;104862;1265;99246;-78
2023/06/03 12:27:39;;;;;;;1.30;0.40;;;;;;;17.85;36.49;101440.98;104766;1271;97986;-78
2023/06/03 12:30:35;;;;;;;2.30;0.50;;;;;;;17.84;36.83;101435.97;104768;1268;98108;-78
2023/06/03 12:33:20;;;;;;;0.80;0.40;;;;;;;17.89;36.57;101439.45;104758;1266;98441;-79
2023/06/03 12:36:07;;;;;;;2.40;0.40;;;;;;;17.88;36.05;101439.84;105082;1268;101336;-80
2023/06/03 12:38:53;;;;;;;1.70;0.50;;;;;;;17.89;36.28;101441.05;104949;1265;99949;-78
2023/06/03 12:41:52;;;;;;;1.00;0.40;;;;;;;18.04;36.66;101442.61;104954;1269;97992;-78
2023/06/03 12:44:48;;;;;;;1.00;0.30;;;;;;;18.13;36.11;101440.89;104806;1271;97936;-78
2023/06/03 12:47:47;;;;;;;1.70;0.60;;;;;;;18.23;36.68;101434.64;105295;1265;97921;-79
2023/06/03 12:50:34;;;;;;;0.70;0.40;;;;;;;18.42;36.75;101433.87;104994;1266;102079;-78
2023/06/03 12:53:21;;;;;;;1.90;0.70;;;;;;;18.48;36.14;101433.45;104558;1270;99074;-78
2023/06/03 12:56:06;;;;;;;1.90;0.20;;;;;;;18.45;35.44;101430.98;104670;1267;98979;-80
2023/06/03 12:58:53;;;;;;;2.00;0.50;;;;;;;18.39;34.85;101428.91;104685;1266;98487;-77